createdAt,value
2023-04-03T00:01:39.571Z,99805.41
2023-04-03T00:04:07.920Z,99809.31
2023-04-03T00:06:36.609Z,99805.38
2023-04-03T00:09:04.150Z,99808.91
2023-04-03T00:11:32.342Z,99809.66
2023-04-03T00:14:00.091Z,99806.44
2023-04-03T00:16:28.084Z,99816.78
2023-04-03T00:18:56.538Z,99817.66
2023-04-03T00:21:25.171Z,99815.38
2023-04-03T00:23:53.659Z,99818.81
2023-04-03T00:26:22.402Z,99824.63
2023-04-03T00:28:49.874Z,99824.53
2023-04-03T00:31:18.443Z,99826.37
2023-04-03T00:33:46.224Z,99827.50
2023-04-03T00:36:14.186Z,99819.59
2023-04-03T00:38:52.869Z,99829.09
2023-04-03T00:41:22.681Z,99821.00
2023-04-03T00:43:50.671Z,99819.16
2023-04-03T00:46:19.114Z,99831.09
2023-04-03T00:48:48.961Z,99830.44
2023-04-03T00:51:24.237Z,99833.03
2023-04-03T00:53:57.116Z,99834.56
2023-04-03T00:56:27.100Z,99833.25
2023-04-03T00:59:24.184Z,99840.94
2023-04-03T01:01:52.565Z,99841.16
2023-04-03T01:04:41.039Z,99836.28
2023-04-03T01:07:16.224Z,99846.22
2023-04-03T01:09:46.414Z,99843.97
2023-04-03T01:12:23.981Z,99837.97
2023-04-03T01:14:57.302Z,99840.31
2023-04-03T01:17:35.776Z,99847.81
2023-04-03T01:20:41.190Z,99842.38
2023-04-03T01:23:21.548Z,99835.38
2023-04-03T01:25:52.901Z,99838.28
2023-04-03T01:28:32.637Z,99843.09
2023-04-03T01:31:19.597Z,99841.50
2023-04-03T01:33:48.439Z,99842.06
2023-04-03T01:36:23.320Z,99843.97
2023-04-03T01:38:51.539Z,99845.91
2023-04-03T01:41:19.824Z,99838.41
2023-04-03T01:43:49.128Z,99845.72
2023-04-03T01:46:17.898Z,99849.25
2023-04-03T01:48:48.881Z,99856.75
2023-04-03T01:51:16.500Z,99852.72
2023-04-03T01:53:46.207Z,99850.69
2023-04-03T01:56:15.422Z,99850.22
2023-04-03T01:58:44.512Z,99860.16
2023-04-03T02:01:13.968Z,99863.97
2023-04-03T02:03:41.988Z,99864.56
2023-04-03T02:06:11.451Z,99861.28
2023-04-03T02:08:41.279Z,99861.94
2023-04-03T02:11:09.819Z,99857.44
2023-04-03T02:13:38.263Z,99855.00
2023-04-03T02:16:11.028Z,99856.03
2023-04-03T02:18:40.575Z,99852.91
2023-04-03T02:21:09.760Z,99860.09
2023-04-03T02:23:38.066Z,99859.91
2023-04-03T02:26:11.935Z,99855.81
2023-04-03T02:28:39.806Z,99865.38
2023-04-03T02:31:08.582Z,99860.31
2023-04-03T02:33:38.193Z,99858.94
2023-04-03T02:36:09.412Z,99865.88
2023-04-03T02:38:38.037Z,99866.56
2023-04-03T02:41:09.402Z,99860.53
2023-04-03T02:43:38.323Z,99861.19
2023-04-03T02:46:12.190Z,99867.31
2023-04-03T02:48:40.366Z,99862.44
2023-04-03T02:51:08.090Z,99858.69
2023-04-03T02:53:36.736Z,99857.53
2023-04-03T02:56:05.398Z,99865.66
2023-04-03T02:58:33.031Z,99862.75
2023-04-03T03:01:03.277Z,99866.75
2023-04-03T03:03:31.623Z,99863.47
2023-04-03T03:06:07.393Z,99866.41
2023-04-03T03:08:36.453Z,99871.34
2023-04-03T03:11:09.154Z,99875.84
2023-04-03T03:13:39.822Z,99880.81
2023-04-03T03:16:09.263Z,99879.53
2023-04-03T03:18:38.331Z,99874.97
2023-04-03T03:21:06.155Z,99875.25
2023-04-03T03:23:35.788Z,99886.72
2023-04-03T03:26:07.473Z,99886.44
2023-04-03T03:28:37.286Z,99886.34
2023-04-03T03:31:10.302Z,99878.41
2023-04-03T03:33:41.085Z,99886.00
2023-04-03T03:36:11.793Z,99884.44
2023-04-03T03:38:42.298Z,99887.06
2023-04-03T03:41:11.130Z,99884.94
2023-04-03T03:43:40.456Z,99886.81
2023-04-03T03:46:09.721Z,99885.53
2023-04-03T03:48:38.649Z,99887.75
2023-04-03T03:51:07.482Z,99893.84
2023-04-03T03:53:35.695Z,99890.59
2023-04-03T03:56:04.787Z,99890.53
2023-04-03T03:58:34.172Z,99891.88
2023-04-03T04:01:04.732Z,99891.97
2023-04-03T04:03:35.514Z,99889.53
2023-04-03T04:06:07.163Z,99892.94
2023-04-03T04:08:37.338Z,99884.50
2023-04-03T04:11:06.558Z,99887.69
2023-04-03T04:13:36.355Z,99883.22
2023-04-03T04:16:07.200Z,99887.78
2023-04-03T04:18:41.164Z,99890.41
2023-04-03T04:21:14.145Z,99889.31
2023-04-03T04:23:43.040Z,99886.13
2023-04-03T04:26:17.304Z,99885.69
2023-04-03T04:28:51.706Z,99891.97
2023-04-03T04:31:24.595Z,99896.56
2023-04-03T04:33:54.779Z,99894.22
2023-04-03T04:36:25.495Z,99896.41
2023-04-03T04:38:54.378Z,99895.47
2023-04-03T04:41:24.832Z,99895.31
2023-04-03T04:44:00.362Z,99901.13
2023-04-03T04:46:29.436Z,99905.66
2023-04-03T04:48:58.600Z,99901.13
2023-04-03T04:51:32.879Z,99897.22
2023-04-03T04:54:03.808Z,99894.94
2023-04-03T04:56:36.352Z,99902.25
2023-04-03T04:59:08.179Z,99915.19
2023-04-03T05:01:37.018Z,99922.81
2023-04-03T05:04:08.125Z,99910.81
2023-04-03T05:06:39.487Z,99910.75
2023-04-03T05:09:11.081Z,99911.47
2023-04-03T05:11:42.712Z,99911.31
2023-04-03T05:14:12.506Z,99918.09
2023-04-03T05:16:43.136Z,99911.09
2023-04-03T05:19:12.660Z,99912.97
2023-04-03T05:21:50.417Z,99928.44
2023-04-03T05:24:23.069Z,99912.66
2023-04-03T05:26:51.211Z,99920.91
2023-04-03T05:29:19.970Z,99917.53
2023-04-03T05:31:55.820Z,99917.41
2023-04-03T05:34:35.173Z,99922.41
2023-04-03T05:37:06.565Z,99914.78
2023-04-03T05:39:36.586Z,99914.25
2023-04-03T05:42:05.698Z,99916.31
2023-04-03T05:44:34.869Z,99913.62
2023-04-03T05:47:05.854Z,99921.88
2023-04-03T05:49:41.790Z,99917.53
2023-04-03T05:52:23.734Z,99925.28
2023-04-03T05:54:52.549Z,99925.09
2023-04-03T05:57:26.550Z,99928.09
2023-04-03T05:59:55.060Z,99934.13
2023-04-03T06:02:26.346Z,99930.31
2023-04-03T06:04:55.216Z,99929.28
2023-04-03T06:07:29.100Z,99931.06
2023-04-03T06:09:58.509Z,99930.31
2023-04-03T06:12:30.301Z,99936.03
2023-04-03T06:15:05.147Z,99935.00
2023-04-03T06:20:11.437Z,99929.03
2023-04-03T06:22:43.156Z,99935.31
2023-04-03T06:25:14.067Z,99941.44
2023-04-03T06:27:43.314Z,99934.19
2023-04-03T06:30:14.526Z,99924.56
2023-04-03T06:35:29.140Z,99923.72
2023-04-03T06:38:05.597Z,99931.66
2023-04-03T06:40:36.324Z,99937.16
2023-04-03T06:43:05.359Z,99939.97
2023-04-03T06:45:35.575Z,99952.81
2023-04-03T06:48:06.778Z,99941.38
2023-04-03T06:50:43.981Z,99945.91
2023-04-03T06:53:15.713Z,99949.56
2023-04-03T06:55:46.161Z,99949.31
2023-04-03T06:58:16.423Z,99956.44
2023-04-03T07:00:46.675Z,99960.75
2023-04-03T07:03:17.375Z,99958.88
2023-04-03T07:05:48.466Z,99958.97
2023-04-03T07:08:18.512Z,99958.00
2023-04-03T07:10:46.728Z,99953.63
2023-04-03T07:13:21.167Z,99955.44
2023-04-03T07:15:50.127Z,99951.62
2023-04-03T07:18:20.238Z,99963.37
2023-04-03T07:20:49.166Z,99962.78
2023-04-03T07:23:25.900Z,99961.44
2023-04-03T07:25:55.130Z,99952.66
2023-04-03T07:28:23.871Z,99959.88
2023-04-03T07:34:01.142Z,99944.16
2023-04-03T07:36:30.451Z,99943.03
2023-04-03T07:38:58.103Z,99951.50
2023-04-03T07:41:26.247Z,99963.13
2023-04-03T07:43:57.823Z,99954.44
2023-04-03T07:46:25.670Z,99961.81
2023-04-03T07:48:53.304Z,99973.97
2023-04-03T07:51:29.178Z,99965.00
2023-04-03T07:53:57.762Z,99965.28
2023-04-03T07:56:26.501Z,99970.97
2023-04-03T07:58:55.260Z,99971.06
2023-04-03T08:01:30.173Z,99974.44
2023-04-03T08:04:01.881Z,99972.13
2023-04-03T08:06:45.918Z,99980.56
2023-04-03T08:09:17.458Z,99980.38
2023-04-03T08:11:47.095Z,99975.41
2023-04-03T08:14:29.095Z,99981.69
2023-04-03T08:16:57.981Z,99986.41
2023-04-03T08:19:28.429Z,99986.41
2023-04-03T08:21:59.682Z,99984.75
2023-04-03T08:24:33.101Z,99988.13
2023-04-03T08:27:02.743Z,99987.66
2023-04-03T08:29:32.930Z,99989.91
2023-04-03T08:32:03.051Z,99981.72
2023-04-03T08:34:38.248Z,99992.16
2023-04-03T08:37:07.196Z,99980.25
2023-04-03T08:39:36.797Z,99992.50
2023-04-03T08:42:16.065Z,99990.50
2023-04-03T08:44:50.517Z,99986.59
2023-04-03T08:47:25.491Z,99980.72
2023-04-03T08:49:58.363Z,99976.09
2023-04-03T08:52:38.422Z,99983.09
2023-04-03T08:55:16.420Z,99983.72
2023-04-03T08:57:50.177Z,99988.22
2023-04-03T09:00:26.118Z,99985.22
2023-04-03T09:02:57.029Z,99987.94
2023-04-03T09:06:01.760Z,99977.34
2023-04-03T09:08:36.150Z,99980.22
2023-04-03T09:11:53.447Z,99982.34
2023-04-03T09:14:30.482Z,99984.44
2023-04-03T09:17:04.389Z,99980.69
2023-04-03T09:19:49.119Z,99989.62
2023-04-03T09:22:27.106Z,99991.06
2023-04-03T09:25:10.184Z,99982.44
2023-04-03T09:27:40.007Z,99983.31
2023-04-03T09:30:19.221Z,99991.19
2023-04-03T09:32:51.552Z,99981.00
2023-04-03T09:35:39.950Z,99990.50
2023-04-03T09:38:13.510Z,99986.66
2023-04-03T09:40:50.303Z,99991.13
2023-04-03T09:43:30.849Z,99993.34
2023-04-03T09:46:30.236Z,99990.22
2023-04-03T09:49:09.308Z,99985.72
2023-04-03T09:51:43.111Z,99985.22
2023-04-03T09:54:33.386Z,99982.41
2023-04-03T09:57:13.016Z,99982.62
2023-04-03T10:00:07.150Z,99976.72
2023-04-03T10:02:41.059Z,99970.75
2023-04-03T10:05:37.110Z,99967.31
2023-04-03T10:08:14.518Z,99971.47
2023-04-03T10:10:46.632Z,99972.41
2023-04-03T10:13:21.626Z,99965.81
2023-04-03T10:15:57.600Z,99970.91
2023-04-03T10:18:34.798Z,99966.22
2023-04-03T10:21:26.631Z,99964.44
2023-04-03T10:24:16.039Z,99964.72
2023-04-03T10:27:00.110Z,99957.91
2023-04-03T10:29:55.110Z,99970.28
2023-04-03T10:32:47.915Z,99966.28
2023-04-03T10:35:23.170Z,99979.09
2023-04-03T10:38:02.113Z,99971.88
2023-04-03T10:40:51.458Z,99966.00
2023-04-03T10:43:35.606Z,99963.16
2023-04-03T10:46:43.488Z,99961.59
2023-04-03T10:49:39.124Z,99962.69
2023-04-03T10:52:31.100Z,99961.09
2023-04-03T10:55:16.255Z,99960.00
2023-04-03T10:57:49.413Z,99965.66
2023-04-03T11:00:22.360Z,99959.03
2023-04-03T11:02:57.227Z,99963.09
2023-04-03T11:05:43.122Z,99963.66
2023-04-03T11:08:33.314Z,99967.00
2023-04-03T11:11:09.871Z,99963.97
2023-04-03T11:14:02.928Z,99961.84
2023-04-03T11:16:43.596Z,99964.34
2023-04-03T11:19:36.425Z,99953.44
2023-04-03T11:22:17.131Z,99960.75
2023-04-03T11:24:56.178Z,99958.88
2023-04-03T11:27:25.549Z,99954.91
2023-04-03T11:29:57.938Z,99951.50
2023-04-03T11:32:39.232Z,99943.59
2023-04-03T11:35:14.871Z,99946.06
2023-04-03T11:37:55.386Z,99937.72
2023-04-03T11:40:31.201Z,99930.97
2023-04-03T11:43:10.930Z,99925.06
2023-04-03T11:45:50.822Z,99936.06
2023-04-03T11:48:24.760Z,99932.41
2023-04-03T11:51:01.955Z,99929.91
2023-04-03T11:53:36.248Z,99927.72
2023-04-03T11:59:06.119Z,99935.66
2023-04-03T12:02:01.144Z,99937.84
2023-04-03T12:04:35.080Z,99938.63
2023-04-03T12:07:19.098Z,99925.75
2023-04-03T12:09:51.271Z,99939.87
2023-04-03T12:12:30.899Z,99934.50
2023-04-03T12:15:25.645Z,99937.91
2023-04-03T12:17:56.334Z,99922.22
2023-04-03T12:20:56.095Z,99923.38
2023-04-03T12:23:30.865Z,99926.13
2023-04-03T12:26:32.433Z,99923.88
2023-04-03T12:29:25.820Z,99923.44
2023-04-03T12:32:07.369Z,99922.41
2023-04-03T12:34:46.179Z,99918.97
2023-04-03T12:37:59.268Z,99918.59
2023-04-03T12:40:44.138Z,99919.91
2023-04-03T12:43:37.302Z,99917.66
2023-04-03T12:46:13.166Z,99912.44
2023-04-03T12:51:45.724Z,99920.16
2023-04-03T12:54:39.122Z,99913.38
2023-04-03T12:57:19.034Z,99919.44
2023-04-03T12:59:54.837Z,99911.03
2023-04-03T13:02:30.583Z,99914.94
2023-04-03T13:05:10.392Z,99906.19
2023-04-03T13:07:54.210Z,99905.72
2023-04-03T13:10:23.026Z,99897.06
2023-04-03T13:12:55.479Z,99895.13
2023-04-03T13:15:31.884Z,99893.78
2023-04-03T13:18:02.161Z,99893.41
2023-04-03T13:20:34.101Z,99893.16
2023-04-03T13:23:10.067Z,99877.03
2023-04-03T13:25:44.422Z,99875.66
2023-04-03T13:28:15.906Z,99880.50
2023-04-03T13:31:02.958Z,99863.53
2023-04-03T13:33:38.930Z,99874.59
2023-04-03T13:36:20.299Z,99882.34
2023-04-03T13:39:04.553Z,99873.56
2023-04-03T13:41:43.139Z,99875.00
2023-04-03T13:44:25.405Z,99863.37
2023-04-03T13:47:18.388Z,99872.09
2023-04-03T13:50:00.981Z,99874.75
2023-04-03T13:53:05.339Z,99864.91
2023-04-03T13:59:21.111Z,99860.78
2023-04-03T14:02:10.343Z,99857.03
2023-04-03T14:04:50.644Z,99855.75
2023-04-03T14:07:22.083Z,99847.44
2023-04-03T14:09:52.436Z,99850.06
2023-04-03T14:12:36.177Z,99847.13
2023-04-03T14:15:37.232Z,99863.56
2023-04-03T14:18:30.424Z,99863.06
2023-04-03T14:21:27.207Z,99855.34
2023-04-03T14:24:19.095Z,99856.25
2023-04-03T14:27:10.482Z,99859.00
2023-04-03T14:29:53.385Z,99854.75
2023-04-03T14:32:33.379Z,99871.75
2023-04-03T14:35:21.204Z,99860.09
2023-04-03T14:38:31.936Z,99857.38
2023-04-03T14:41:15.639Z,99854.25
2023-04-03T14:44:03.059Z,99849.19
2023-04-03T14:46:55.612Z,99872.94
2023-04-03T14:49:30.217Z,99876.72
2023-04-03T14:52:04.215Z,99883.72
2023-04-03T14:54:55.079Z,99876.09
2023-04-03T14:57:47.307Z,99887.37
2023-04-03T15:03:34.230Z,99870.66
2023-04-03T15:06:34.953Z,99867.78
2023-04-03T15:09:35.440Z,99866.75
2023-04-03T15:12:22.755Z,99876.72
2023-04-03T15:15:24.159Z,99893.72
2023-04-03T15:18:08.226Z,99890.44
2023-04-03T15:21:20.099Z,99890.22
2023-04-03T15:24:02.071Z,99885.38
2023-04-03T15:26:45.353Z,99879.94
2023-04-03T15:29:43.232Z,99883.19
2023-04-03T15:32:25.291Z,99888.31
2023-04-03T15:35:25.171Z,99876.34
2023-04-03T15:38:07.223Z,99875.94
2023-04-03T15:40:59.233Z,99875.81
2023-04-03T15:43:46.405Z,99890.50
2023-04-03T15:46:44.171Z,99890.31
2023-04-03T15:49:35.100Z,99888.19
2023-04-03T15:52:13.471Z,99895.59
2023-04-03T15:54:43.442Z,99891.22
2023-04-03T15:57:12.652Z,99891.22
2023-04-03T15:59:59.369Z,99895.81
2023-04-03T16:02:32.877Z,99891.94
2023-04-03T16:05:08.798Z,99890.00
2023-04-03T16:07:46.323Z,99901.75
2023-04-03T16:10:31.105Z,99905.88
2023-04-03T16:15:44.427Z,99885.03
2023-04-03T16:18:15.129Z,99876.69
2023-04-03T16:23:31.328Z,99882.97
2023-04-03T16:26:00.689Z,99881.00
2023-04-03T16:28:31.075Z,99886.41
2023-04-03T16:31:01.780Z,99887.84
2023-04-03T16:33:37.883Z,99887.22
2023-04-03T16:36:25.104Z,99893.81
2023-04-03T16:38:58.493Z,99894.47
2023-04-03T16:41:30.169Z,99902.59
2023-04-03T16:44:01.141Z,99897.50
2023-04-03T16:46:38.034Z,99904.69
2023-04-03T16:49:13.051Z,99899.72
2023-04-03T16:51:43.281Z,99908.56
2023-04-03T16:54:18.208Z,99902.63
2023-04-03T16:56:58.022Z,99912.94
2023-04-03T16:59:34.140Z,99911.91
2023-04-03T17:02:10.042Z,99912.06
2023-04-03T17:04:42.050Z,99922.72
2023-04-03T17:07:17.047Z,99928.41
2023-04-03T17:09:49.013Z,99927.44
2023-04-03T17:12:24.353Z,99937.66
2023-04-03T17:20:18.124Z,99959.88
2023-04-03T17:22:47.100Z,99972.34
2023-04-03T17:25:18.326Z,99969.97
2023-04-03T17:27:49.353Z,99965.47
2023-04-03T17:30:21.116Z,99977.81
2023-04-03T17:32:54.060Z,99985.06
2023-04-03T17:35:32.134Z,99995.88
2023-04-03T17:38:14.222Z,100004.00
2023-04-03T17:40:47.583Z,100017.63
2023-04-03T17:43:29.069Z,100021.88
2023-04-03T17:46:13.179Z,100017.31
2023-04-03T17:48:48.271Z,100036.00
2023-04-03T17:51:26.418Z,100032.56
2023-04-03T17:54:04.036Z,100046.56
2023-04-03T17:56:36.206Z,100047.72
2023-04-03T17:59:07.554Z,100051.81
2023-04-03T18:04:18.399Z,100076.88
2023-04-03T18:06:51.294Z,100072.53
2023-04-03T18:09:34.176Z,100091.63
2023-04-03T18:12:10.566Z,100087.53
2023-04-03T18:14:41.344Z,100103.06
2023-04-03T18:17:18.998Z,100106.47
2023-04-03T18:22:33.383Z,100105.78
2023-04-03T18:25:07.179Z,100107.63
2023-04-03T18:27:38.370Z,100116.91
2023-04-03T18:30:13.912Z,100121.59
2023-04-03T18:32:42.004Z,100139.53
2023-04-03T18:35:15.364Z,100140.69
2023-04-03T18:37:48.442Z,100149.37
2023-04-03T18:40:20.272Z,100151.88
2023-04-03T18:42:54.681Z,100151.28
2023-04-03T18:45:30.886Z,100156.00
2023-04-03T18:48:03.153Z,100155.91
2023-04-03T18:50:49.036Z,100155.91
2023-04-03T18:53:19.007Z,100146.47
2023-04-03T18:55:57.275Z,100154.78
2023-04-03T18:58:33.107Z,100158.97
2023-04-03T19:01:06.835Z,100151.25
2023-04-03T19:03:46.159Z,100158.06
2023-04-03T19:06:28.086Z,100161.94
2023-04-03T19:08:58.091Z,100159.94
2023-04-03T19:11:30.150Z,100168.00
2023-04-03T19:14:14.345Z,100159.34
2023-04-03T19:16:54.489Z,100162.66
2023-04-03T19:24:48.235Z,100161.53
2023-04-03T19:27:17.162Z,100164.00
2023-04-03T19:29:55.289Z,100151.38
2023-04-03T19:32:30.470Z,100163.34
2023-04-03T19:35:08.100Z,100162.94
2023-04-03T19:37:38.110Z,100173.16
2023-04-03T19:40:16.113Z,100177.03
2023-04-03T19:42:48.256Z,100182.03
2023-04-03T19:45:20.534Z,100175.97
2023-04-03T19:47:52.812Z,100168.38
2023-04-03T19:50:26.073Z,100159.97
2023-04-03T19:52:57.045Z,100163.56
2023-04-03T19:55:32.120Z,100163.47
2023-04-03T19:58:01.987Z,100162.53
2023-04-03T20:00:39.193Z,100164.50
2023-04-03T20:03:08.430Z,100155.81
2023-04-03T20:05:38.213Z,100159.16
2023-04-03T20:08:12.899Z,100158.00
2023-04-03T20:10:43.017Z,100155.56
2023-04-03T20:13:15.073Z,100158.84
2023-04-03T20:15:55.055Z,100162.13
2023-04-03T20:18:24.185Z,100161.88
2023-04-03T20:21:01.095Z,100163.28
2023-04-03T20:26:11.514Z,100164.66
2023-04-03T20:28:43.892Z,100157.53
2023-04-03T20:31:14.093Z,100158.50
2023-04-03T20:33:48.694Z,100163.88
2023-04-03T20:36:22.235Z,100165.75
2023-04-03T20:38:57.696Z,100164.59
2023-04-03T20:41:26.486Z,100163.50
2023-04-03T20:43:58.229Z,100162.53
2023-04-03T20:46:42.171Z,100165.94
2023-04-03T20:49:20.125Z,100174.69
2023-04-03T20:51:51.388Z,100173.63
2023-04-03T20:54:19.885Z,100173.47
2023-04-03T20:56:50.369Z,100168.75
2023-04-03T21:01:54.304Z,100172.13
2023-04-03T21:08:03.603Z,100169.50
2023-04-03T21:14:27.816Z,100178.22
2023-04-03T21:16:56.517Z,100176.66
2023-04-03T21:19:26.676Z,100176.59
2023-04-03T21:21:55.741Z,100170.41
2023-04-03T21:24:25.042Z,100169.59
2023-04-03T21:26:58.071Z,100166.72
2023-04-03T21:29:29.082Z,100165.41
2023-04-03T21:32:02.280Z,100162.81
2023-04-03T21:34:32.101Z,100157.72
2023-04-03T21:37:05.799Z,100174.56
2023-04-03T21:39:35.062Z,100161.06
2023-04-03T21:42:07.493Z,100159.19
2023-04-03T21:44:37.287Z,100158.72
2023-04-03T21:47:05.540Z,100155.91
2023-04-03T21:49:39.743Z,100152.75
2023-04-03T21:52:07.942Z,100147.38
2023-04-03T21:54:36.696Z,100146.72
2023-04-03T21:57:06.111Z,100141.91
2023-04-03T21:59:37.055Z,100156.31
2023-04-03T22:02:05.861Z,100149.44
2023-04-03T22:04:34.489Z,100147.72
2023-04-03T22:07:03.785Z,100142.47
2023-04-03T22:09:32.180Z,100147.66
2023-04-03T22:12:00.298Z,100145.91
2023-04-03T22:14:28.681Z,100142.63
2023-04-03T22:16:57.626Z,100146.56
2023-04-03T22:19:26.702Z,100135.63
2023-04-03T22:21:55.213Z,100139.22
2023-04-03T22:24:23.404Z,100138.38
2023-04-03T22:26:53.656Z,100135.91
2023-04-03T22:29:21.720Z,100139.06
2023-04-03T22:31:49.226Z,100139.16
2023-04-03T22:34:17.585Z,100138.44
2023-04-03T22:36:45.763Z,100137.56
2023-04-03T22:39:16.928Z,100140.56
2023-04-03T22:41:46.621Z,100142.59
2023-04-03T22:44:14.365Z,100152.72
2023-04-03T22:46:42.165Z,100149.31
2023-04-03T22:49:11.344Z,100145.50
2023-04-03T22:51:41.706Z,100156.66
2023-04-03T22:54:10.861Z,100156.97
2023-04-03T22:56:39.397Z,100157.06
2023-04-03T22:59:07.357Z,100155.37
2023-04-03T23:01:39.255Z,100157.56
2023-04-03T23:04:09.150Z,100159.28
2023-04-03T23:06:39.071Z,100148.66
2023-04-03T23:09:07.161Z,100152.63
2023-04-03T23:11:35.190Z,100160.00
2023-04-03T23:14:03.219Z,100152.75
2023-04-03T23:16:31.923Z,100151.72
2023-04-03T23:19:00.831Z,100143.50
2023-04-03T23:21:29.613Z,100148.78
2023-04-03T23:23:57.158Z,100150.16
2023-04-03T23:26:26.642Z,100150.47
2023-04-03T23:28:54.855Z,100149.56
2023-04-03T23:31:23.272Z,100145.91
2023-04-03T23:33:51.909Z,100140.25
2023-04-03T23:36:21.135Z,100138.59
2023-04-03T23:38:48.805Z,100141.38
2023-04-03T23:41:16.397Z,100136.13
2023-04-03T23:43:46.509Z,100132.09
2023-04-03T23:46:14.647Z,100129.44
2023-04-03T23:48:42.575Z,100130.28
2023-04-03T23:51:10.853Z,100138.69
2023-04-03T23:53:39.913Z,100133.66
2023-04-03T23:56:12.612Z,100142.69
2023-04-03T23:58:42.535Z,100143.34
